Terminal Aerodrome Forecast
Issued by NWS

Current Version | Previous Version | Text Only | Print | Product List | Glossary Off
Versions: 1 2 3 4 5 6 7 8 9 10 11 12 13 14 15 16 17 18 19 20

669
FTUS41 KRLX 210858 AAA
TAFCKB
TAF AMD
KCKB 210858Z 2109/2206 22007KT 4SM -SHRA OVC040
     FM211200 23006KT P6SM -SHRA OVC030
     FM211700 26009KT P6SM SCT030
     FM212100 28011KT P6SM SCT070
     FM220000 30005KT P6SM BKN060
     FM220500 36005KT P6SM BKN040=

USA.gov is the U.S. government's official web portal to all federal, state and local government web resources and services.